»·PEaware :: FFT3225 KLAS-KSAN

FFT3225 :: KLAS-KSAN

FLIGHT INFORMATION

Flight Status: Arrived
Operator:
Frontier Airlines
More flights by this operator :: More flights under this callsign
Pilot: Anonymous A. (29301)
Aircraft: AIRBUS A319
(A319)
More flights by this aircraft type
Origin: KLAS McCarran Intl
United States
Destination: KSAN San Diego Intl-Lindbergh
United States
More flights between these airports :: More routes between these airports
Route: + BOACH8 LVELL LUCKI1
File this flight plan on PilotEdge
Remarks:
Altitude:
(Current/Filed)
36,000ft
Speed:
(Current/Filed)
270kts
Departed: 29-Apr-20 12:22 PM
Arrived: 29-Apr-20 01:08 PM
Distance/Time
Traveled:
225nm/0:46
Distance/Time
To Go:
Arrived

Flight Plot

Page will automatically refresh every two minutes.

Flight plan parsing failed; only flown route is shown


Map Options




Map Legend


Flown Route
Filed Route
Departure Airport
Arrival Airport
Navaid (VOR, NDB)
Fix

Horizontal Profiles

Position Reports

Time Latitude Longitude Heading Altitude Ground
Speed
29-Apr-20 12:05 36.082916 -115.134796 264 2060ft 0kts
29-Apr-20 12:06 36.082916 -115.134796 264 2060ft 0kts
29-Apr-20 12:07 36.082916 -115.134796 264 2060ft 0kts
29-Apr-20 12:08 36.082916 -115.134796 264 2060ft 0kts
29-Apr-20 12:09 36.082916 -115.134796 264 2060ft 0kts
29-Apr-20 12:10 36.082916 -115.134792 264 2060ft 0kts
29-Apr-20 12:11 36.082959 -115.134194 265 2059ft 1kts
29-Apr-20 12:12 36.083316 -115.133756 182 2058ft 0kts
29-Apr-20 12:13 36.083384 -115.133757 179 2058ft 0kts
29-Apr-20 12:14 36.083384 -115.133757 179 2058ft 0kts
29-Apr-20 12:15 36.082828 -115.133754 180 2058ft 5kts
29-Apr-20 12:16 36.080532 -115.133760 180 2061ft 10kts
29-Apr-20 12:17 36.078271 -115.132649 89 2061ft 12kts
29-Apr-20 12:18 36.078277 -115.127261 90 2049ft 9kts
29-Apr-20 12:19 36.077323 -115.126062 159 2048ft 0kts
29-Apr-20 12:20 36.076749 -115.126015 196 2048ft 12kts
29-Apr-20 12:21 36.076351 -115.147893 270 2164ft 176kts
29-Apr-20 12:22 36.073776 -115.216347 269 4884ft 236kts
29-Apr-20 12:23 36.027375 -115.276119 202 6971ft 282kts
29-Apr-20 12:24 35.952731 -115.304218 188 7031ft 286kts
29-Apr-20 12:25 35.870876 -115.313573 184 10421ft 311kts
29-Apr-20 12:26 35.774996 -115.306047 174 12725ft 367kts
29-Apr-20 12:28 35.671209 -115.295473 179 15796ft 384kts
29-Apr-20 12:29 35.561634 -115.299471 182 18506ft 400kts
29-Apr-20 12:30 35.450022 -115.303865 182 19046ft 402kts
29-Apr-20 12:31 35.338330 -115.308249 182 19048ft 402kts
29-Apr-20 12:32 35.226240 -115.312664 182 19406ft 410kts
29-Apr-20 12:33 35.111548 -115.317155 182 21831ft 420kts
29-Apr-20 12:34 34.995306 -115.321732 182 24548ft 412kts
29-Apr-20 12:35 34.887697 -115.325954 182 27790ft 373kts
29-Apr-20 12:36 34.788994 -115.331929 191 29974ft 348kts
29-Apr-20 12:37 34.696542 -115.367835 202 30994ft 352kts
29-Apr-20 12:38 34.603892 -115.408523 202 31977ft 358kts
29-Apr-20 12:39 34.505967 -115.451327 202 32058ft 392kts
29-Apr-20 12:40 34.398351 -115.498190 202 32092ft 430kts
29-Apr-20 12:41 34.285418 -115.559153 213 32098ft 461kts
29-Apr-20 12:42 34.172435 -115.632952 204 31750ft 456kts
29-Apr-20 12:42 34.075163 -115.678952 203 30919ft 449kts
29-Apr-20 12:44 33.940520 -115.742505 202 29754ft 442kts
29-Apr-20 12:45 33.827038 -115.797611 203 28575ft 434kts
29-Apr-20 12:45 33.734562 -115.842361 202 27041ft 426kts
29-Apr-20 12:46 33.625619 -115.893129 202 25198ft 416kts
29-Apr-20 12:47 33.521043 -115.947688 218 23345ft 404kts
29-Apr-20 12:49 33.442932 -116.068884 237 21148ft 391kts
29-Apr-20 12:49 33.391823 -116.157101 236 19661ft 384kts
29-Apr-20 12:50 33.326547 -116.254900 216 18090ft 380kts
29-Apr-20 12:51 33.233164 -116.311544 206 16214ft 373kts
29-Apr-20 12:52 33.141236 -116.365153 206 14459ft 362kts
29-Apr-20 12:53 33.052610 -116.416902 206 12820ft 347kts
29-Apr-20 12:54 32.973596 -116.476378 221 11296ft 327kts
29-Apr-20 12:55 32.906220 -116.544682 221 9927ft 308kts
29-Apr-20 12:56 32.844466 -116.606623 221 9018ft 285kts
29-Apr-20 12:57 32.786729 -116.664850 222 7860ft 275kts
29-Apr-20 12:58 32.744471 -116.740155 241 6332ft 275kts
29-Apr-20 12:59 32.709749 -116.813919 244 5921ft 231kts
29-Apr-20 13:00 32.687049 -116.883770 251 5031ft 216kts
29-Apr-20 13:01 32.675003 -116.950436 287 3746ft 180kts
29-Apr-20 13:02 32.687061 -116.998909 287 3167ft 143kts
29-Apr-20 13:03 32.698106 -117.044041 286 2204ft 141kts
29-Apr-20 13:04 32.708921 -117.088757 286 1915ft 140kts
29-Apr-20 13:05 32.719874 -117.133095 286 1018ft 138kts
29-Apr-20 13:06 32.730454 -117.176860 285 135ft 137kts
29-Apr-20 13:07 32.735305 -117.197467 261 21ft 16kts
29-Apr-20 13:08 32.734926 -117.200389 213 20ft 9kts
29-Apr-20 13:09 32.734135 -117.200787 209 20ft 0kts

Navigation Log

Ident Type
Flight plan parsing failed, navigation log unavailable